sensor_id;sensor_type;location;lat;lon;timestamp;temperature;humidity
7384;DHT22;3733;47.994;8.820;2023-04-25T00:02:25;7.10;86.90
7384;DHT22;3733;47.994;8.820;2023-04-25T00:04:51;7.10;89.80
7384;DHT22;3733;47.994;8.820;2023-04-25T00:07:17;7.20;91.10
7384;DHT22;3733;47.994;8.820;2023-04-25T00:09:43;7.10;92.40
7384;DHT22;3733;47.994;8.820;2023-04-25T00:12:08;7.10;93.70
7384;DHT22;3733;47.994;8.820;2023-04-25T00:14:34;7.10;95.10
7384;DHT22;3733;47.994;8.820;2023-04-25T00:17:01;7.10;95.30
7384;DHT22;3733;47.994;8.820;2023-04-25T00:19:26;7.10;96.10
7384;DHT22;3733;47.994;8.820;2023-04-25T00:21:54;7.10;96.50
7384;DHT22;3733;47.994;8.820;2023-04-25T00:24:20;7.10;96.60
7384;DHT22;3733;47.994;8.820;2023-04-25T00:26:46;7.00;97.10
7384;DHT22;3733;47.994;8.820;2023-04-25T00:29:12;7.00;97.40
7384;DHT22;3733;47.994;8.820;2023-04-25T00:31:37;7.00;98.70
7384;DHT22;3733;47.994;8.820;2023-04-25T00:34:03;7.00;99.70
7384;DHT22;3733;47.994;8.820;2023-04-25T00:36:28;7.00;99.70
7384;DHT22;3733;47.994;8.820;2023-04-25T00:38:54;7.00;99.50
7384;DHT22;3733;47.994;8.820;2023-04-25T00:41:20;6.90;98.70
7384;DHT22;3733;47.994;8.820;2023-04-25T00:43:47;6.90;98.50
7384;DHT22;3733;47.994;8.820;2023-04-25T00:46:13;6.90;99.30
7384;DHT22;3733;47.994;8.820;2023-04-25T00:48:39;6.90;99.60
7384;DHT22;3733;47.994;8.820;2023-04-25T00:51:05;6.90;99.80
7384;DHT22;3733;47.994;8.820;2023-04-25T00:53:31;6.90;99.90
7384;DHT22;3733;47.994;8.820;2023-04-25T00:55:57;6.90;99.70
7384;DHT22;3733;47.994;8.820;2023-04-25T00:58:24;6.90;99.90
7384;DHT22;3733;47.994;8.820;2023-04-25T01:00:51;6.90;99.80
7384;DHT22;3733;47.994;8.820;2023-04-25T01:03:17;6.90;99.60
7384;DHT22;3733;47.994;8.820;2023-04-25T01:05:45;6.90;98.30
7384;DHT22;3733;47.994;8.820;2023-04-25T01:08:12;6.90;98.30
7384;DHT22;3733;47.994;8.820;2023-04-25T01:10:38;6.90;98.50
7384;DHT22;3733;47.994;8.820;2023-04-25T01:13:04;6.90;99.10
7384;DHT22;3733;47.994;8.820;2023-04-25T01:15:30;6.90;98.70
7384;DHT22;3733;47.994;8.820;2023-04-25T01:17:57;6.80;98.70
7384;DHT22;3733;47.994;8.820;2023-04-25T01:20:23;6.80;98.60
7384;DHT22;3733;47.994;8.820;2023-04-25T01:22:50;6.80;99.20
7384;DHT22;3733;47.994;8.820;2023-04-25T01:25:17;6.80;99.90
7384;DHT22;3733;47.994;8.820;2023-04-25T01:27:43;6.80;99.90
7384;DHT22;3733;47.994;8.820;2023-04-25T01:30:09;6.70;99.90
7384;DHT22;3733;47.994;8.820;2023-04-25T01:32:35;6.60;99.90
7384;DHT22;3733;47.994;8.820;2023-04-25T01:35:08;6.50;99.90
7384;DHT22;3733;47.994;8.820;2023-04-25T01:37:39;6.50;99.90
7384;DHT22;3733;47.994;8.820;2023-04-25T01:40:05;6.40;99.90
7384;DHT22;3733;47.994;8.820;2023-04-25T01:42:32;6.40;99.90
7384;DHT22;3733;47.994;8.820;2023-04-25T01:44:58;6.40;99.90
7384;DHT22;3733;47.994;8.820;2023-04-25T01:47:24;6.40;99.90
7384;DHT22;3733;47.994;8.820;2023-04-25T01:49:50;6.30;99.90
7384;DHT22;3733;47.994;8.820;2023-04-25T01:52:15;6.30;99.90
7384;DHT22;3733;47.994;8.820;2023-04-25T01:54:41;6.20;99.90
7384;DHT22;3733;47.994;8.820;2023-04-25T01:57:12;6.20;99.90
7384;DHT22;3733;47.994;8.820;2023-04-25T01:59:38;6.20;99.90
7384;DHT22;3733;47.994;8.820;2023-04-25T02:02:04;6.20;99.90
7384;DHT22;3733;47.994;8.820;2023-04-25T02:04:30;6.20;99.90
7384;DHT22;3733;47.994;8.820;2023-04-25T02:06:55;6.20;99.90
7384;DHT22;3733;47.994;8.820;2023-04-25T02:09:21;6.20;99.90
7384;DHT22;3733;47.994;8.820;2023-04-25T02:11:47;6.10;99.90
7384;DHT22;3733;47.994;8.820;2023-04-25T02:14:13;6.10;99.90
7384;DHT22;3733;47.994;8.820;2023-04-25T02:16:38;6.10;99.90
7384;DHT22;3733;47.994;8.820;2023-04-25T02:19:05;6.10;99.90
7384;DHT22;3733;47.994;8.820;2023-04-25T02:21:31;6.00;99.90
7384;DHT22;3733;47.994;8.820;2023-04-25T02:23:57;6.00;99.90
7384;DHT22;3733;47.994;8.820;2023-04-25T02:26:23;6.00;99.90
7384;DHT22;3733;47.994;8.820;2023-04-25T02:28:49;6.00;99.90
7384;DHT22;3733;47.994;8.820;2023-04-25T02:31:15;6.00;99.90
7384;DHT22;3733;47.994;8.820;2023-04-25T02:33:41;6.00;99.90
7384;DHT22;3733;47.994;8.820;2023-04-25T02:36:07;5.90;99.90
7384;DHT22;3733;47.994;8.820;2023-04-25T02:38:33;5.90;99.90
7384;DHT22;3733;47.994;8.820;2023-04-25T02:40:59;5.90;99.90
7384;DHT22;3733;47.994;8.820;2023-04-25T02:43:24;5.80;99.90
7384;DHT22;3733;47.994;8.820;2023-04-25T02:45:50;5.80;99.90
7384;DHT22;3733;47.994;8.820;2023-04-25T02:48:16;5.80;99.90
7384;DHT22;3733;47.994;8.820;2023-04-25T02:50:41;5.80;99.90
7384;DHT22;3733;47.994;8.820;2023-04-25T02:53:07;5.80;99.90
7384;DHT22;3733;47.994;8.820;2023-04-25T02:55:33;5.90;99.90
7384;DHT22;3733;47.994;8.820;2023-04-25T02:57:58;5.90;99.90
7384;DHT22;3733;47.994;8.820;2023-04-25T03:00:24;5.90;99.90
7384;DHT22;3733;47.994;8.820;2023-04-25T03:02:50;5.90;99.90
7384;DHT22;3733;47.994;8.820;2023-04-25T03:05:16;5.90;99.90
7384;DHT22;3733;47.994;8.820;2023-04-25T03:07:42;5.80;99.90
7384;DHT22;3733;47.994;8.820;2023-04-25T03:10:10;5.80;99.90
7384;DHT22;3733;47.994;8.820;2023-04-25T03:12:35;5.80;99.90
7384;DHT22;3733;47.994;8.820;2023-04-25T03:15:01;5.80;99.90
7384;DHT22;3733;47.994;8.820;2023-04-25T03:17:27;5.80;99.90
7384;DHT22;3733;47.994;8.820;2023-04-25T03:19:52;5.70;99.90
7384;DHT22;3733;47.994;8.820;2023-04-25T03:22:18;5.70;99.90
7384;DHT22;3733;47.994;8.820;2023-04-25T03:24:43;5.70;99.90
7384;DHT22;3733;47.994;8.820;2023-04-25T03:27:09;5.60;99.90
7384;DHT22;3733;47.994;8.820;2023-04-25T03:29:35;5.60;99.90
7384;DHT22;3733;47.994;8.820;2023-04-25T03:32:00;5.60;99.90
7384;DHT22;3733;47.994;8.820;2023-04-25T03:34:26;5.60;99.90
7384;DHT22;3733;47.994;8.820;2023-04-25T03:36:52;5.60;99.90
7384;DHT22;3733;47.994;8.820;2023-04-25T03:39:17;5.50;99.90
7384;DHT22;3733;47.994;8.820;2023-04-25T03:41:43;5.50;99.90
7384;DHT22;3733;47.994;8.820;2023-04-25T03:44:08;5.50;99.90
7384;DHT22;3733;47.994;8.820;2023-04-25T03:46:34;5.40;99.90
7384;DHT22;3733;47.994;8.820;2023-04-25T03:49:00;5.40;99.90
7384;DHT22;3733;47.994;8.820;2023-04-25T03:51:25;5.30;99.90
7384;DHT22;3733;47.994;8.820;2023-04-25T03:53:52;5.30;99.90
7384;DHT22;3733;47.994;8.820;2023-04-25T03:56:17;5.20;99.90
7384;DHT22;3733;47.994;8.820;2023-04-25T03:58:43;5.20;99.90
7384;DHT22;3733;47.994;8.820;2023-04-25T04:01:09;5.10;99.90
7384;DHT22;3733;47.994;8.820;2023-04-25T04:03:35;5.20;99.90
7384;DHT22;3733;47.994;8.820;2023-04-25T04:06:05;5.20;99.90
7384;DHT22;3733;47.994;8.820;2023-04-25T04:08:31;5.10;99.90
7384;DHT22;3733;47.994;8.820;2023-04-25T04:10:58;5.10;99.90
7384;DHT22;3733;47.994;8.820;2023-04-25T04:13:25;5.10;99.90
7384;DHT22;3733;47.994;8.820;2023-04-25T04:15:50;5.10;99.90
7384;DHT22;3733;47.994;8.820;2023-04-25T04:18:16;5.00;99.90
7384;DHT22;3733;47.994;8.820;2023-04-25T04:20:42;5.00;99.90
7384;DHT22;3733;47.994;8.820;2023-04-25T04:23:07;5.00;99.90
7384;DHT22;3733;47.994;8.820;2023-04-25T04:25:33;5.00;99.90
7384;DHT22;3733;47.994;8.820;2023-04-25T04:27:59;5.00;99.90
7384;DHT22;3733;47.994;8.820;2023-04-25T04:30:26;5.00;99.90
7384;DHT22;3733;47.994;8.820;2023-04-25T04:32:55;5.00;99.90
7384;DHT22;3733;47.994;8.820;2023-04-25T04:35:22;5.00;99.90
7384;DHT22;3733;47.994;8.820;2023-04-25T04:37:47;5.00;99.90
7384;DHT22;3733;47.994;8.820;2023-04-25T04:40:14;5.00;99.90
7384;DHT22;3733;47.994;8.820;2023-04-25T04:42:43;4.90;99.90
7384;DHT22;3733;47.994;8.820;2023-04-25T04:45:11;4.90;99.90
7384;DHT22;3733;47.994;8.820;2023-04-25T04:47:38;4.90;99.90
7384;DHT22;3733;47.994;8.820;2023-04-25T04:50:09;4.90;99.90
7384;DHT22;3733;47.994;8.820;2023-04-25T04:52:35;4.90;99.90
7384;DHT22;3733;47.994;8.820;2023-04-25T04:55:02;5.00;99.90
7384;DHT22;3733;47.994;8.820;2023-04-25T04:57:28;5.00;99.90
7384;DHT22;3733;47.994;8.820;2023-04-25T04:59:54;5.00;99.90
7384;DHT22;3733;47.994;8.820;2023-04-25T05:02:19;5.10;99.90
7384;DHT22;3733;47.994;8.820;2023-04-25T05:04:45;5.10;99.90
7384;DHT22;3733;47.994;8.820;2023-04-25T05:07:10;5.10;99.90
7384;DHT22;3733;47.994;8.820;2023-04-25T05:09:36;5.10;99.90
7384;DHT22;3733;47.994;8.820;2023-04-25T05:12:02;5.20;99.90
7384;DHT22;3733;47.994;8.820;2023-04-25T05:14:28;5.20;99.90
7384;DHT22;3733;47.994;8.820;2023-04-25T05:16:53;5.30;99.90
7384;DHT22;3733;47.994;8.820;2023-04-25T05:19:19;5.30;99.90
7384;DHT22;3733;47.994;8.820;2023-04-25T05:21:45;5.40;99.90
7384;DHT22;3733;47.994;8.820;2023-04-25T05:24:10;5.40;99.90
7384;DHT22;3733;47.994;8.820;2023-04-25T05:26:37;5.50;99.90
7384;DHT22;3733;47.994;8.820;2023-04-25T05:29:03;5.50;99.90
7384;DHT22;3733;47.994;8.820;2023-04-25T05:31:28;5.50;99.90
7384;DHT22;3733;47.994;8.820;2023-04-25T05:33:54;5.50;99.90
7384;DHT22;3733;47.994;8.820;2023-04-25T05:36:20;5.60;99.90
7384;DHT22;3733;47.994;8.820;2023-04-25T05:38:45;5.60;99.90
7384;DHT22;3733;47.994;8.820;2023-04-25T05:41:11;5.60;99.90
7384;DHT22;3733;47.994;8.820;2023-04-25T05:43:36;5.50;99.90
7384;DHT22;3733;47.994;8.820;2023-04-25T05:46:02;5.50;99.90
7384;DHT22;3733;47.994;8.820;2023-04-25T05:48:28;5.50;99.90
7384;DHT22;3733;47.994;8.820;2023-04-25T05:50:53;5.60;99.90
7384;DHT22;3733;47.994;8.820;2023-04-25T05:53:20;5.60;99.90
7384;DHT22;3733;47.994;8.820;2023-04-25T05:55:47;5.70;99.90
7384;DHT22;3733;47.994;8.820;2023-04-25T05:58:13;5.70;99.90
7384;DHT22;3733;47.994;8.820;2023-04-25T06:00:38;5.80;99.90
7384;DHT22;3733;47.994;8.820;2023-04-25T06:03:04;5.80;99.90
7384;DHT22;3733;47.994;8.820;2023-04-25T06:05:30;5.90;99.90
7384;DHT22;3733;47.994;8.820;2023-04-25T06:07:55;5.90;99.90
7384;DHT22;3733;47.994;8.820;2023-04-25T06:10:21;6.00;99.90
7384;DHT22;3733;47.994;8.820;2023-04-25T06:12:49;6.10;99.90
7384;DHT22;3733;47.994;8.820;2023-04-25T06:15:14;6.10;99.90
7384;DHT22;3733;47.994;8.820;2023-04-25T06:17:41;6.20;99.90
7384;DHT22;3733;47.994;8.820;2023-04-25T06:20:07;6.20;99.90
7384;DHT22;3733;47.994;8.820;2023-04-25T06:22:33;6.20;99.90
7384;DHT22;3733;47.994;8.820;2023-04-25T06:24:59;6.30;99.90
7384;DHT22;3733;47.994;8.820;2023-04-25T06:27:25;6.30;99.90
7384;DHT22;3733;47.994;8.820;2023-04-25T06:29:51;6.30;99.90
7384;DHT22;3733;47.994;8.820;2023-04-25T06:32:16;6.30;99.90
7384;DHT22;3733;47.994;8.820;2023-04-25T06:34:43;6.40;99.90
7384;DHT22;3733;47.994;8.820;2023-04-25T06:37:09;6.40;99.90
7384;DHT22;3733;47.994;8.820;2023-04-25T06:39:34;6.40;99.90
7384;DHT22;3733;47.994;8.820;2023-04-25T06:42:00;6.40;99.90
7384;DHT22;3733;47.994;8.820;2023-04-25T06:44:26;6.40;99.90
7384;DHT22;3733;47.994;8.820;2023-04-25T06:46:51;6.40;99.90
7384;DHT22;3733;47.994;8.820;2023-04-25T06:49:17;6.40;99.90
7384;DHT22;3733;47.994;8.820;2023-04-25T06:51:43;6.40;99.90
7384;DHT22;3733;47.994;8.820;2023-04-25T06:54:08;6.40;99.90
7384;DHT22;3733;47.994;8.820;2023-04-25T06:56:34;6.40;99.90
7384;DHT22;3733;47.994;8.820;2023-04-25T06:58:59;6.40;99.90
7384;DHT22;3733;47.994;8.820;2023-04-25T07:01:26;6.40;99.90
7384;DHT22;3733;47.994;8.820;2023-04-25T07:03:51;6.40;99.90
7384;DHT22;3733;47.994;8.820;2023-04-25T07:06:17;6.40;99.90
7384;DHT22;3733;47.994;8.820;2023-04-25T07:08:42;6.30;99.90
7384;DHT22;3733;47.994;8.820;2023-04-25T07:11:08;6.30;99.90
7384;DHT22;3733;47.994;8.820;2023-04-25T07:13:34;6.30;99.90
7384;DHT22;3733;47.994;8.820;2023-04-25T07:16:00;6.30;99.90
7384;DHT22;3733;47.994;8.820;2023-04-25T07:18:25;6.30;99.90
7384;DHT22;3733;47.994;8.820;2023-04-25T07:20:51;6.30;99.90
7384;DHT22;3733;47.994;8.820;2023-04-25T07:23:16;6.20;99.90
7384;DHT22;3733;47.994;8.820;2023-04-25T07:25:42;6.10;99.90
7384;DHT22;3733;47.994;8.820;2023-04-25T07:28:08;6.10;99.90
7384;DHT22;3733;47.994;8.820;2023-04-25T07:30:33;6.10;99.90
7384;DHT22;3733;47.994;8.820;2023-04-25T07:33:00;6.10;99.90
7384;DHT22;3733;47.994;8.820;2023-04-25T07:35:25;6.10;99.90
7384;DHT22;3733;47.994;8.820;2023-04-25T07:37:51;6.10;99.90
7384;DHT22;3733;47.994;8.820;2023-04-25T07:40:17;6.00;99.90
7384;DHT22;3733;47.994;8.820;2023-04-25T07:42:43;6.00;99.90
7384;DHT22;3733;47.994;8.820;2023-04-25T07:45:08;5.90;99.90
7384;DHT22;3733;47.994;8.820;2023-04-25T07:47:35;5.90;99.90
7384;DHT22;3733;47.994;8.820;2023-04-25T07:50:00;5.80;99.90
7384;DHT22;3733;47.994;8.820;2023-04-25T07:52:26;5.70;99.90
7384;DHT22;3733;47.994;8.820;2023-04-25T07:54:52;5.60;99.90
7384;DHT22;3733;47.994;8.820;2023-04-25T07:57:18;5.50;99.90
7384;DHT22;3733;47.994;8.820;2023-04-25T07:59:45;5.40;99.90
7384;DHT22;3733;47.994;8.820;2023-04-25T08:02:10;5.40;99.90
7384;DHT22;3733;47.994;8.820;2023-04-25T08:04:36;5.40;99.90
7384;DHT22;3733;47.994;8.820;2023-04-25T08:07:01;5.30;99.90
7384;DHT22;3733;47.994;8.820;2023-04-25T08:09:27;5.30;99.90
7384;DHT22;3733;47.994;8.820;2023-04-25T08:11:53;5.30;99.90
7384;DHT22;3733;47.994;8.820;2023-04-25T08:14:18;5.30;99.90
7384;DHT22;3733;47.994;8.820;2023-04-25T08:16:44;5.30;99.90
7384;DHT22;3733;47.994;8.820;2023-04-25T08:19:10;5.20;99.90
7384;DHT22;3733;47.994;8.820;2023-04-25T08:21:36;5.20;99.90
7384;DHT22;3733;47.994;8.820;2023-04-25T08:24:02;5.10;99.90
7384;DHT22;3733;47.994;8.820;2023-04-25T08:26:28;5.10;99.90
7384;DHT22;3733;47.994;8.820;2023-04-25T08:28:54;5.10;99.90
7384;DHT22;3733;47.994;8.820;2023-04-25T08:31:19;5.00;99.90
7384;DHT22;3733;47.994;8.820;2023-04-25T08:33:46;5.00;99.90
7384;DHT22;3733;47.994;8.820;2023-04-25T08:36:11;5.00;99.90
7384;DHT22;3733;47.994;8.820;2023-04-25T08:38:37;5.00;99.90
7384;DHT22;3733;47.994;8.820;2023-04-25T08:41:03;5.00;99.90
7384;DHT22;3733;47.994;8.820;2023-04-25T08:43:30;5.10;99.90
7384;DHT22;3733;47.994;8.820;2023-04-25T08:45:59;5.00;99.90
7384;DHT22;3733;47.994;8.820;2023-04-25T08:48:27;5.00;99.90
7384;DHT22;3733;47.994;8.820;2023-04-25T08:50:55;5.00;99.90
7384;DHT22;3733;47.994;8.820;2023-04-25T08:53:26;5.00;99.90
7384;DHT22;3733;47.994;8.820;2023-04-25T08:55:54;5.10;99.90
7384;DHT22;3733;47.994;8.820;2023-04-25T08:58:21;5.00;99.90
7384;DHT22;3733;47.994;8.820;2023-04-25T09:00:48;5.10;99.90
7384;DHT22;3733;47.994;8.820;2023-04-25T09:03:14;5.10;99.90
7384;DHT22;3733;47.994;8.820;2023-04-25T09:05:40;5.10;99.90
7384;DHT22;3733;47.994;8.820;2023-04-25T09:08:06;5.10;99.90
7384;DHT22;3733;47.994;8.820;2023-04-25T09:10:33;5.10;99.90
7384;DHT22;3733;47.994;8.820;2023-04-25T09:13:13;5.10;99.90
7384;DHT22;3733;47.994;8.820;2023-04-25T09:15:58;5.10;99.90
7384;DHT22;3733;47.994;8.820;2023-04-25T09:20:52;5.00;99.90
7384;DHT22;3733;47.994;8.820;2023-04-25T09:23:19;5.00;99.90
7384;DHT22;3733;47.994;8.820;2023-04-25T09:25:51;5.10;99.90
7384;DHT22;3733;47.994;8.820;2023-04-25T09:28:24;5.30;99.90
7384;DHT22;3733;47.994;8.820;2023-04-25T09:30:56;5.50;99.90
7384;DHT22;3733;47.994;8.820;2023-04-25T09:33:29;5.60;99.90
7384;DHT22;3733;47.994;8.820;2023-04-25T09:36:02;5.70;99.90
7384;DHT22;3733;47.994;8.820;2023-04-25T09:38:30;5.80;99.90
7384;DHT22;3733;47.994;8.820;2023-04-25T09:40:56;6.00;99.90
7384;DHT22;3733;47.994;8.820;2023-04-25T09:43:23;6.10;99.90
7384;DHT22;3733;47.994;8.820;2023-04-25T09:45:50;6.30;99.90
7384;DHT22;3733;47.994;8.820;2023-04-25T09:48:25;6.50;99.90
7384;DHT22;3733;47.994;8.820;2023-04-25T09:51:13;6.60;99.90
7384;DHT22;3733;47.994;8.820;2023-04-25T09:53:46;6.80;99.90
7384;DHT22;3733;47.994;8.820;2023-04-25T09:56:12;6.80;99.90
7384;DHT22;3733;47.994;8.820;2023-04-25T09:58:40;6.80;99.90
7384;DHT22;3733;47.994;8.820;2023-04-25T10:01:10;7.00;99.90
7384;DHT22;3733;47.994;8.820;2023-04-25T10:03:40;7.10;99.90
7384;DHT22;3733;47.994;8.820;2023-04-25T10:06:19;7.20;99.90
7384;DHT22;3733;47.994;8.820;2023-04-25T10:08:47;7.40;99.90
7384;DHT22;3733;47.994;8.820;2023-04-25T10:11:14;7.50;99.90
7384;DHT22;3733;47.994;8.820;2023-04-25T10:13:41;7.60;99.90
7384;DHT22;3733;47.994;8.820;2023-04-25T10:16:08;7.70;99.90
7384;DHT22;3733;47.994;8.820;2023-04-25T10:18:33;7.70;99.90
7384;DHT22;3733;47.994;8.820;2023-04-25T10:21:01;7.70;99.90
7384;DHT22;3733;47.994;8.820;2023-04-25T10:23:27;7.70;99.90
7384;DHT22;3733;47.994;8.820;2023-04-25T10:25:55;7.80;99.90
7384;DHT22;3733;47.994;8.820;2023-04-25T10:28:21;7.90;99.90
7384;DHT22;3733;47.994;8.820;2023-04-25T10:31:07;8.00;99.90
7384;DHT22;3733;47.994;8.820;2023-04-25T10:33:40;8.10;99.90
7384;DHT22;3733;47.994;8.820;2023-04-25T10:36:15;8.10;99.90
7384;DHT22;3733;47.994;8.820;2023-04-25T10:38:43;8.00;94.80
7384;DHT22;3733;47.994;8.820;2023-04-25T10:41:10;8.00;99.90
7384;DHT22;3733;47.994;8.820;2023-04-25T10:43:44;8.10;99.90
7384;DHT22;3733;47.994;8.820;2023-04-25T10:46:17;8.10;99.90
7384;DHT22;3733;47.994;8.820;2023-04-25T10:48:46;8.00;99.90
7384;DHT22;3733;47.994;8.820;2023-04-25T10:53:48;8.00;99.90
7384;DHT22;3733;47.994;8.820;2023-04-25T10:56:22;8.10;99.90
7384;DHT22;3733;47.994;8.820;2023-04-25T10:58:48;8.10;95.70
7384;DHT22;3733;47.994;8.820;2023-04-25T11:01:19;8.00;95.20
7384;DHT22;3733;47.994;8.820;2023-04-25T11:03:45;8.00;99.90
7384;DHT22;3733;47.994;8.820;2023-04-25T11:09:17;8.10;99.90
7384;DHT22;3733;47.994;8.820;2023-04-25T11:11:42;8.60;99.90
7384;DHT22;3733;47.994;8.820;2023-04-25T11:14:08;9.00;99.90
7384;DHT22;3733;47.994;8.820;2023-04-25T11:16:34;9.30;96.70
7384;DHT22;3733;47.994;8.820;2023-04-25T11:19:01;9.60;91.10
7384;DHT22;3733;47.994;8.820;2023-04-25T11:21:27;9.80;85.90
7384;DHT22;3733;47.994;8.820;2023-04-25T11:23:54;9.80;83.60
7384;DHT22;3733;47.994;8.820;2023-04-25T11:26:22;9.90;78.80
7384;DHT22;3733;47.994;8.820;2023-04-25T11:28:49;9.90;77.20
7384;DHT22;3733;47.994;8.820;2023-04-25T11:31:14;10.00;77.80
7384;DHT22;3733;47.994;8.820;2023-04-25T11:33:40;9.90;73.20
7384;DHT22;3733;47.994;8.820;2023-04-25T11:36:06;9.80;73.40
7384;DHT22;3733;47.994;8.820;2023-04-25T11:38:32;9.70;75.10
7384;DHT22;3733;47.994;8.820;2023-04-25T11:40:58;9.60;73.00
7384;DHT22;3733;47.994;8.820;2023-04-25T11:43:25;9.50;74.40
7384;DHT22;3733;47.994;8.820;2023-04-25T11:45:51;9.50;79.20
7384;DHT22;3733;47.994;8.820;2023-04-25T11:48:18;9.50;73.90
7384;DHT22;3733;47.994;8.820;2023-04-25T11:50:44;9.50;72.50
7384;DHT22;3733;47.994;8.820;2023-04-25T11:53:10;9.50;73.10
7384;DHT22;3733;47.994;8.820;2023-04-25T11:55:36;9.40;72.80
7384;DHT22;3733;47.994;8.820;2023-04-25T11:58:04;9.40;71.60
7384;DHT22;3733;47.994;8.820;2023-04-25T12:00:30;9.50;73.00
7384;DHT22;3733;47.994;8.820;2023-04-25T12:02:57;9.50;74.40
7384;DHT22;3733;47.994;8.820;2023-04-25T12:05:30;9.50;74.30
7384;DHT22;3733;47.994;8.820;2023-04-25T12:08:09;9.50;74.30
7384;DHT22;3733;47.994;8.820;2023-04-25T12:10:38;9.50;75.30
7384;DHT22;3733;47.994;8.820;2023-04-25T12:13:25;9.60;75.50
7384;DHT22;3733;47.994;8.820;2023-04-25T12:15:54;9.90;74.00
7384;DHT22;3733;47.994;8.820;2023-04-25T12:18:23;10.50;70.10
7384;DHT22;3733;47.994;8.820;2023-04-25T12:20:49;10.90;66.30
7384;DHT22;3733;47.994;8.820;2023-04-25T12:23:15;10.90;64.00
7384;DHT22;3733;47.994;8.820;2023-04-25T12:25:42;10.90;64.00
7384;DHT22;3733;47.994;8.820;2023-04-25T12:33:23;10.90;61.90
7384;DHT22;3733;47.994;8.820;2023-04-25T12:35:49;11.20;61.20
7384;DHT22;3733;47.994;8.820;2023-04-25T12:38:26;11.60;62.00
7384;DHT22;3733;47.994;8.820;2023-04-25T12:40:52;12.00;63.30
7384;DHT22;3733;47.994;8.820;2023-04-25T12:43:18;12.20;60.40
7384;DHT22;3733;47.994;8.820;2023-04-25T12:45:54;12.20;59.60
7384;DHT22;3733;47.994;8.820;2023-04-25T12:48:21;12.00;59.00
7384;DHT22;3733;47.994;8.820;2023-04-25T12:50:47;12.10;59.90
7384;DHT22;3733;47.994;8.820;2023-04-25T12:53:17;12.40;58.30
7384;DHT22;3733;47.994;8.820;2023-04-25T12:55:43;12.40;56.50
7384;DHT22;3733;47.994;8.820;2023-04-25T12:58:11;12.40;58.30
7384;DHT22;3733;47.994;8.820;2023-04-25T13:00:36;12.30;58.10
7384;DHT22;3733;47.994;8.820;2023-04-25T13:03:03;12.30;58.50
7384;DHT22;3733;47.994;8.820;2023-04-25T13:05:30;12.60;57.70
7384;DHT22;3733;47.994;8.820;2023-04-25T13:07:56;12.80;56.10
7384;DHT22;3733;47.994;8.820;2023-04-25T13:10:22;13.20;57.40
7384;DHT22;3733;47.994;8.820;2023-04-25T13:12:48;13.10;56.10
7384;DHT22;3733;47.994;8.820;2023-04-25T13:15:13;12.80;55.10
7384;DHT22;3733;47.994;8.820;2023-04-25T13:17:41;12.30;54.40
7384;DHT22;3733;47.994;8.820;2023-04-25T13:20:08;12.00;55.20
7384;DHT22;3733;47.994;8.820;2023-04-25T13:22:38;11.80;55.50
7384;DHT22;3733;47.994;8.820;2023-04-25T13:25:06;12.00;56.50
7384;DHT22;3733;47.994;8.820;2023-04-25T13:27:32;12.00;56.10
7384;DHT22;3733;47.994;8.820;2023-04-25T13:30:04;11.80;56.50
7384;DHT22;3733;47.994;8.820;2023-04-25T13:32:36;11.80;57.60
7384;DHT22;3733;47.994;8.820;2023-04-25T13:35:04;11.90;57.80
7384;DHT22;3733;47.994;8.820;2023-04-25T13:37:30;11.90;58.50
7384;DHT22;3733;47.994;8.820;2023-04-25T13:40:01;12.20;58.20
7384;DHT22;3733;47.994;8.820;2023-04-25T13:42:29;12.20;56.10
7384;DHT22;3733;47.994;8.820;2023-04-25T13:44:55;12.10;57.00
7384;DHT22;3733;47.994;8.820;2023-04-25T13:47:22;12.00;57.20
7384;DHT22;3733;47.994;8.820;2023-04-25T13:49:47;12.30;58.60
7384;DHT22;3733;47.994;8.820;2023-04-25T13:52:13;12.50;57.60
7384;DHT22;3733;47.994;8.820;2023-04-25T13:54:39;12.40;56.40
7384;DHT22;3733;47.994;8.820;2023-04-25T13:57:05;12.20;57.20
7384;DHT22;3733;47.994;8.820;2023-04-25T13:59:31;12.10;57.90
7384;DHT22;3733;47.994;8.820;2023-04-25T14:01:56;12.30;57.00
7384;DHT22;3733;47.994;8.820;2023-04-25T14:04:22;12.30;55.30
7384;DHT22;3733;47.994;8.820;2023-04-25T14:06:47;12.10;55.10
7384;DHT22;3733;47.994;8.820;2023-04-25T14:09:13;11.80;55.20
7384;DHT22;3733;47.994;8.820;2023-04-25T14:11:39;11.60;56.30
7384;DHT22;3733;47.994;8.820;2023-04-25T14:14:05;11.40;56.00
7384;DHT22;3733;47.994;8.820;2023-04-25T14:16:31;11.10;56.70
7384;DHT22;3733;47.994;8.820;2023-04-25T14:18:58;10.90;57.80
7384;DHT22;3733;47.994;8.820;2023-04-25T14:21:24;10.70;58.50
7384;DHT22;3733;47.994;8.820;2023-04-25T14:23:50;10.60;58.90
7384;DHT22;3733;47.994;8.820;2023-04-25T14:26:16;10.50;59.80
7384;DHT22;3733;47.994;8.820;2023-04-25T14:28:41;10.40;58.60
7384;DHT22;3733;47.994;8.820;2023-04-25T14:31:07;10.30;57.60
7384;DHT22;3733;47.994;8.820;2023-04-25T14:33:33;10.20;57.90
7384;DHT22;3733;47.994;8.820;2023-04-25T14:35:59;10.20;57.50
7384;DHT22;3733;47.994;8.820;2023-04-25T14:38:24;10.10;56.90
7384;DHT22;3733;47.994;8.820;2023-04-25T14:40:51;10.40;58.60
7384;DHT22;3733;47.994;8.820;2023-04-25T14:43:17;11.00;59.10
7384;DHT22;3733;47.994;8.820;2023-04-25T14:45:42;11.40;57.50
7384;DHT22;3733;47.994;8.820;2023-04-25T14:48:08;11.50;56.90
7384;DHT22;3733;47.994;8.820;2023-04-25T14:50:34;11.30;56.90
7384;DHT22;3733;47.994;8.820;2023-04-25T14:52:59;11.10;56.70
7384;DHT22;3733;47.994;8.820;2023-04-25T14:55:28;10.90;56.90
7384;DHT22;3733;47.994;8.820;2023-04-25T14:57:54;10.70;56.90
7384;DHT22;3733;47.994;8.820;2023-04-25T15:00:21;10.50;57.70
7384;DHT22;3733;47.994;8.820;2023-04-25T15:02:51;10.40;58.60
7384;DHT22;3733;47.994;8.820;2023-04-25T15:05:16;10.40;59.60
7384;DHT22;3733;47.994;8.820;2023-04-25T15:07:43;10.60;60.30
7384;DHT22;3733;47.994;8.820;2023-04-25T15:10:09;10.80;59.70
7384;DHT22;3733;47.994;8.820;2023-04-25T15:12:39;11.10;58.90
7384;DHT22;3733;47.994;8.820;2023-04-25T15:15:06;11.40;57.80
7384;DHT22;3733;47.994;8.820;2023-04-25T15:17:45;11.40;56.00
7384;DHT22;3733;47.994;8.820;2023-04-25T15:20:13;11.10;55.10
7384;DHT22;3733;47.994;8.820;2023-04-25T15:22:40;10.90;55.60
7384;DHT22;3733;47.994;8.820;2023-04-25T15:25:06;11.00;56.50
7384;DHT22;3733;47.994;8.820;2023-04-25T15:27:38;11.10;55.40
7384;DHT22;3733;47.994;8.820;2023-04-25T15:30:12;11.30;54.80
7384;DHT22;3733;47.994;8.820;2023-04-25T15:32:42;11.60;55.10
7384;DHT22;3733;47.994;8.820;2023-04-25T15:35:09;12.00;55.40
7384;DHT22;3733;47.994;8.820;2023-04-25T15:37:35;12.30;52.40
7384;DHT22;3733;47.994;8.820;2023-04-25T15:42:46;12.30;51.20
7384;DHT22;3733;47.994;8.820;2023-04-25T15:45:21;12.00;51.00
7384;DHT22;3733;47.994;8.820;2023-04-25T15:47:51;11.80;51.50
7384;DHT22;3733;47.994;8.820;2023-04-25T15:50:17;11.80;52.00
7384;DHT22;3733;47.994;8.820;2023-04-25T15:52:43;12.20;51.40
7384;DHT22;3733;47.994;8.820;2023-04-25T15:55:09;12.60;50.90
7384;DHT22;3733;47.994;8.820;2023-04-25T15:57:35;13.10;50.20
7384;DHT22;3733;47.994;8.820;2023-04-25T16:00:05;13.10;49.30
7384;DHT22;3733;47.994;8.820;2023-04-25T16:02:42;12.80;49.20
7384;DHT22;3733;47.994;8.820;2023-04-25T16:05:09;12.40;48.70
7384;DHT22;3733;47.994;8.820;2023-04-25T16:07:36;12.10;49.10
7384;DHT22;3733;47.994;8.820;2023-04-25T16:10:02;11.70;50.40
7384;DHT22;3733;47.994;8.820;2023-04-25T16:12:29;11.40;50.60
7384;DHT22;3733;47.994;8.820;2023-04-25T16:14:55;11.10;52.50
7384;DHT22;3733;47.994;8.820;2023-04-25T16:17:22;10.90;53.70
7384;DHT22;3733;47.994;8.820;2023-04-25T16:19:48;10.70;55.40
7384;DHT22;3733;47.994;8.820;2023-04-25T16:22:15;10.60;56.70
7384;DHT22;3733;47.994;8.820;2023-04-25T16:24:44;10.40;57.20
7384;DHT22;3733;47.994;8.820;2023-04-25T16:27:10;10.30;57.80
7384;DHT22;3733;47.994;8.820;2023-04-25T16:29:36;10.20;58.20